Algiers Airport, Algeria

10:43 PM CET on August 29, 2016 (GMT +0100)
Houari Boumediene | | Change Station

Elev 82 ft 36.69 °N, 3.22 °E | Updated 13 minutes ago

Partly Cloudy
Partly Cloudy
77 °F
Feels Like 77 °F
N
4
Wind Variable Wind from North

Today
High -- | Low -- °F
--% Chance of Precip.
Yesterday
High -- | Low -- °F
Precip. -- in
Pressure 30.04 in
Visibility 3.7 miles
Clouds Few 1600 ft
Dew Point 75 °F
Humidity 94%
Rainfall 0.00 in
Snow Depth Not available.
6:15 AM 7:19 PM
Waning Crescent, 7% visible
METAR DAAG 292130Z 35003KT 310V010 6000 FEW016 25/24 Q1017
Pressure 30.04 in
Visibility 3.7 miles
Clouds Few 1600 ft
Dew Point 75 °F
Humidity 94%
Rainfall 0.00 in
Snow Depth Not available.
6:15 AM 7:19 PM
Waning Crescent, 7% visible
METAR DAAG 292130Z 35003KT 310V010 6000 FEW016 25/24 Q1017

10-Day Weather Forecast

No radar image for this location.
×

Almanac

Astronomy

Aug. 29, 2016 Rise Set
Actual Time
Civil Twilight
Nautical Twilight
Astronomical Twilight
Moon
Length of Visible Light
Length of Day
Tomorrow will be .
, % of the Moon is Illuminated

Today's Extremes

Country Highs Country Lows

Community

WunderPhotos

Upload Photos

1,935,690 photos uploaded!

WunderBlog® & News

Nearby

Air Quality

  Air Quality AQ Index Pollutant
Not available.

Snow Depth

Station Depth Elevation

Earthquake Activity

City Distance Mag. Time & Date
Minimum magnitude displayed is 2.5.

Coastal Water Temperatures

Place Temperature

Stations

Nearby Weather Stations

Station Location Temp. Windchill Dew Point Humidity Wind Precip. Elev Updated Type